Aeroporto :
LOGIN :

Iscrizione | Disclaimer

   EN    FR    IT 

 










Sommario :    VFR   VFR Marginale   IFR   IFR Intensivo   IFR Molto Intensivo
Visibilità : 
Base nubi : 
>= 8 km
>= 3000ft
5 / 8 km
1000 / 3000 ft
1500m / 5 km
500 / 1000 ft
800 / 1500m
200 / 500 ft
< 800m
< 200 ft
Simboli :   Temporali  Nebbia  Neve Forte  Precipitazioni Forti  Vento > 20 kt
SIGMETs :   Varie  Temporali  Ghiacco  Turbolenza  Onda orograficha  Ceneri Vulcaniche






- Altitudine del aeroporto : 170 ft
- Codice IATA : BGO


ENBR - Bergen , Flesland

ULTIMO METAR :
  • 280550Z 12008KT 9999 FEW030 03/01 Q0988 NOSIG RMK WIND 1200FT 13015KT

METARs OBSOLETI :
  • 280520Z 13009KT 9999 FEW020 03/01 Q0988 RMK WIND 1200FT 13015KT
  • 280450Z 13010KT 9999 FEW020 03/01 Q0989 RMK WIND 1200FT 14018KT
  • 280420Z 13011KT 9999 FEW020 03/01 Q0988 RMK WIND 1200FT 14022KT
  • 280350Z 13012KT 9999 FEW019 SCT086 03/01 Q0989 RMK WIND 1200FT 13022KT
  • 280320Z 14011KT 9999 FEW010 SCT020 BKN025 03/02 Q0989 RMK WIND 1200FT 15019KT

TAF TAF ENBR
Valido dal 28 a 06 ore il 29 a 06 ore UTC


2806/2906 12008KT 9999 FEW020 SCT100
BECMG 2903/2906 4000 RADZ BKN010



MetMap, La meteo Aeronautica in un colpo d'occhio ! - Copyright ORBIFLY Dicembre 2007 - Disclaimer

ORBIFLY MET'MAP TEAM :

Programmazione e sviluppo : Alexandra Zaïnal
Concezione : Baudouin d'Aumeries
Aiuto per la programmazione : Marc-Olivier Méhu
Supporto tecnico e logistico : Manuel Goepfert
Aiuto per la traduzione : Arnaldo La Scala

Contatto : metmap@orbifly.com




FONTI E CREDITI :

   NOAA